Time;durP1;ratioP1;P1;durP2;ratioP2;P2;SDS_P1;SDS_P2;PMS_P1;PMS_P2;Temp;Humidity;BMP_temperature;BMP_pressure;BME280_temperature;BME280_humidity;BME280_pressure;Samples;Min_cycle;Max_cycle;Signal;HPM_P1;HPM_P2
2023/08/01 00:02:35;;;;;;;3.97;3.20;;;;;;;;;;4919809;29;20040;-81
2023/08/01 00:05:21;;;;;;;6.93;3.65;;;;;;;;;;4920019;29;20043;-81
2023/08/01 00:08:07;;;;;;;5.68;4.13;;;;;;;;;;4920195;29;20040;-81
2023/08/01 00:10:52;;;;;;;7.30;3.90;;;;;;;;;;4919173;29;20044;-80
2023/08/01 00:13:37;;;;;;;6.80;4.13;;;;;;;;;;4919673;29;20048;-80
2023/08/01 00:16:23;;;;;;;5.80;3.38;;;;;;;;;;4925148;29;20494;-80
2023/08/01 00:19:09;;;;;;;5.10;3.70;;;;;;;;;;4919667;29;20393;-80
2023/08/01 00:21:55;;;;;;;6.65;3.38;;;;;;;;;;4919768;29;20471;-80
2023/08/01 00:24:40;;;;;;;7.22;3.83;;;;;;;;;;4924204;29;20048;-80
2023/08/01 00:27:25;;;;;;;9.70;4.50;;;;;;;;;;4918887;29;20044;-81
2023/08/01 00:30:11;;;;;;;10.40;4.60;;;;;;;;;;4918982;29;20040;-80
2023/08/01 00:32:57;;;;;;;6.03;4.30;;;;;;;;;;4919024;29;20044;-81
2023/08/01 00:35:42;;;;;;;7.70;4.30;;;;;;;;;;4931375;29;20044;-81
2023/08/01 00:38:28;;;;;;;8.57;4.25;;;;;;;;;;4918788;29;20052;-81
2023/08/01 00:41:14;;;;;;;8.25;4.32;;;;;;;;;;4918702;29;20040;-81
2023/08/01 00:43:59;;;;;;;7.57;3.97;;;;;;;;;;4926379;29;20048;-81
2023/08/01 00:46:45;;;;;;;7.50;4.35;;;;;;;;;;4921163;29;20036;-81
2023/08/01 00:49:31;;;;;;;7.40;4.28;;;;;;;;;;4921708;29;20054;-81
2023/08/01 00:52:17;;;;;;;6.15;4.43;;;;;;;;;;4921144;29;20044;-81
2023/08/01 00:55:02;;;;;;;8.77;4.18;;;;;;;;;;4921072;29;20051;-81
2023/08/01 00:57:48;;;;;;;8.02;3.78;;;;;;;;;;4920914;29;20040;-80
2023/08/01 01:00:33;;;;;;;5.07;4.05;;;;;;;;;;4921825;29;20056;-81
2023/08/01 01:03:19;;;;;;;5.85;3.55;;;;;;;;;;4925942;29;20478;-80
2023/08/01 01:06:11;;;;;;;5.32;3.78;;;;;;;;;;4931745;29;20052;-81
2023/08/01 01:08:56;;;;;;;4.05;3.20;;;;;;;;;;4917680;29;20518;-80
2023/08/01 01:11:43;;;;;;;8.18;3.08;;;;;;;;;;4923717;29;20044;-80
2023/08/01 01:14:28;;;;;;;11.07;3.25;;;;;;;;;;4923737;29;20044;-81
2023/08/01 01:17:13;;;;;;;8.55;3.20;;;;;;;;;;4937092;29;20056;-80
2023/08/01 01:19:59;;;;;;;5.93;3.25;;;;;;;;;;4936961;29;20490;-80
2023/08/01 01:22:44;;;;;;;10.68;3.30;;;;;;;;;;4931376;29;20044;-81
2023/08/01 01:25:32;;;;;;;9.18;3.33;;;;;;;;;;4923807;29;20044;-81
2023/08/01 01:28:18;;;;;;;5.63;3.33;;;;;;;;;;4922996;29;20056;-80
2023/08/01 01:31:04;;;;;;;7.00;3.70;;;;;;;;;;4921561;29;20052;-81
2023/08/01 01:33:49;;;;;;;6.60;3.22;;;;;;;;;;4923711;29;20047;-80
2023/08/01 01:36:34;;;;;;;17.95;6.00;;;;;;;;;;4918939;29;20048;-80
2023/08/01 01:39:20;;;;;;;5.95;3.15;;;;;;;;;;4918613;29;20482;-80
2023/08/01 01:42:06;;;;;;;5.28;3.10;;;;;;;;;;4933309;29;20044;-80
2023/08/01 01:44:51;;;;;;;8.20;3.20;;;;;;;;;;4931109;29;20044;-81
2023/08/01 01:47:39;;;;;;;11.27;3.42;;;;;;;;;;4917986;29;20047;-80
2023/08/01 01:50:26;;;;;;;10.80;3.53;;;;;;;;;;4917551;29;20056;-80
2023/08/01 01:53:12;;;;;;;6.53;3.30;;;;;;;;;;4917342;29;20044;-81
2023/08/01 01:55:58;;;;;;;5.75;3.75;;;;;;;;;;4923980;29;20052;-79
2023/08/01 01:58:44;;;;;;;7.72;3.67;;;;;;;;;;4922910;29;20044;-80
2023/08/01 02:01:30;;;;;;;6.55;3.20;;;;;;;;;;4922631;29;20052;-80
2023/08/01 02:04:24;;;;;;;5.38;3.50;;;;;;;;;;4929260;29;20052;-80
2023/08/01 02:07:10;;;;;;;6.72;3.25;;;;;;;;;;4923131;29;20052;-80
2023/08/01 02:09:55;;;;;;;9.73;3.33;;;;;;;;;;4923034;29;20044;-80
2023/08/01 02:12:41;;;;;;;11.20;3.55;;;;;;;;;;4917420;29;20048;-80
2023/08/01 02:15:26;;;;;;;8.77;3.63;;;;;;;;;;4922636;29;20478;-80
2023/08/01 02:18:12;;;;;;;7.43;3.30;;;;;;;;;;4922511;29;20044;-80
2023/08/01 02:21:01;;;;;;;13.98;5.75;;;;;;;;;;4918545;29;20048;-79
2023/08/01 02:23:46;;;;;;;15.23;9.23;;;;;;;;;;4921045;29;20040;-80
2023/08/01 02:26:32;;;;;;;15.20;8.98;;;;;;;;;;4926486;29;20047;-80
2023/08/01 02:29:17;;;;;;;18.77;10.02;;;;;;;;;;4920707;29;20502;-80
2023/08/01 02:32:03;;;;;;;20.98;13.25;;;;;;;;;;4921319;29;20049;-81
2023/08/01 02:34:48;;;;;;;18.33;11.20;;;;;;;;;;4920772;29;20044;-80
2023/08/01 02:37:34;;;;;;;15.77;8.57;;;;;;;;;;4926205;29;20406;-80
2023/08/01 02:40:20;;;;;;;9.32;4.50;;;;;;;;;;4926102;29;20040;-80
2023/08/01 02:43:05;;;;;;;7.55;4.03;;;;;;;;;;4925843;29;20059;-80
2023/08/01 02:45:51;;;;;;;7.90;4.22;;;;;;;;;;4925994;29;20048;-80
2023/08/01 02:48:36;;;;;;;7.53;3.38;;;;;;;;;;4920856;29;20051;-80
2023/08/01 02:51:22;;;;;;;5.40;3.30;;;;;;;;;;4920507;29;20048;-80
2023/08/01 02:54:07;;;;;;;5.78;3.42;;;;;;;;;;4919370;29;20040;-80
2023/08/01 02:56:53;;;;;;;7.68;3.70;;;;;;;;;;4925742;29;20043;-80
2023/08/01 02:59:39;;;;;;;4.72;3.17;;;;;;;;;;4920323;29;20056;-81
2023/08/01 03:02:24;;;;;;;7.57;3.80;;;;;;;;;;4920351;29;20048;-81
2023/08/01 03:05:11;;;;;;;8.27;3.70;;;;;;;;;;4920076;29;20413;-81
2023/08/01 03:07:57;;;;;;;6.68;3.72;;;;;;;;;;4925512;29;20044;-80
2023/08/01 03:10:43;;;;;;;7.10;3.70;;;;;;;;;;4925599;29;20048;-80
2023/08/01 03:13:30;;;;;;;6.80;3.58;;;;;;;;;;4920095;29;20052;-80
2023/08/01 03:16:15;;;;;;;6.60;3.40;;;;;;;;;;4925467;29;20048;-81
2023/08/01 03:19:04;;;;;;;8.70;3.58;;;;;;;;;;4919859;29;20394;-80
2023/08/01 03:21:53;;;;;;;8.13;3.40;;;;;;;;;;4920241;29;20051;-81
2023/08/01 03:24:41;;;;;;;5.28;3.42;;;;;;;;;;4932154;29;20056;-81
2023/08/01 03:59:45;;;;;;;9.43;4.03;;;;;;;;;;4950458;29;20059;-81
2023/08/01 04:02:30;;;;;;;8.23;3.65;;;;;;;;;;4952583;29;20511;-83
2023/08/01 04:05:16;;;;;;;6.40;3.65;;;;;;;;;;4953970;29;20035;-84
2023/08/01 04:08:01;;;;;;;6.13;3.97;;;;;;;;;;4954121;29;20487;-83
2023/08/01 04:10:49;;;;;;;5.28;3.50;;;;;;;;;;4954388;29;20051;-83
2023/08/01 04:13:35;;;;;;;6.18;3.83;;;;;;;;;;4945275;28;20051;-86
2023/08/01 04:16:23;;;;;;;5.25;3.30;;;;;;;;;;4954225;29;20047;-85
2023/08/01 04:27:03;;;;;;;6.20;3.55;;;;;;;;;;4920137;29;20043;-86
2023/08/01 04:29:49;;;;;;;6.28;4.07;;;;;;;;;;4958942;28;20407;-84
2023/08/01 04:32:35;;;;;;;11.32;4.28;;;;;;;;;;4958487;29;20043;-83
2023/08/01 04:35:20;;;;;;;8.30;4.10;;;;;;;;;;4964514;29;20039;-86
2023/08/01 04:38:06;;;;;;;9.13;4.00;;;;;;;;;;4973123;29;20047;-82
2023/08/01 04:40:51;;;;;;;9.45;3.90;;;;;;;;;;4957157;29;20043;-82
2023/08/01 04:43:37;;;;;;;8.15;4.07;;;;;;;;;;4953200;28;20498;-83
2023/08/01 04:46:23;;;;;;;10.43;5.07;;;;;;;;;;4953613;29;20047;-84
2023/08/01 04:49:08;;;;;;;9.93;4.10;;;;;;;;;;4953745;29;20039;-84
2023/08/01 04:51:54;;;;;;;7.78;3.67;;;;;;;;;;4954281;29;20051;-84
2023/08/01 04:54:39;;;;;;;9.60;4.18;;;;;;;;;;4953601;29;20055;-82
2023/08/01 04:57:25;;;;;;;6.45;4.13;;;;;;;;;;4953197;29;20039;-83
2023/08/01 05:00:11;;;;;;;7.28;4.30;;;;;;;;;;4959011;28;20459;-82
2023/08/01 05:02:56;;;;;;;10.75;3.95;;;;;;;;;;4970972;28;20039;-85
2023/08/01 05:05:42;;;;;;;7.00;3.60;;;;;;;;;;4972108;28;20043;-86
2023/08/01 05:08:27;;;;;;;7.30;3.90;;;;;;;;;;4972499;28;20054;-86
2023/08/01 05:11:13;;;;;;;8.80;3.65;;;;;;;;;;4957564;28;20043;-84
2023/08/01 05:13:58;;;;;;;9.25;3.47;;;;;;;;;;4956825;28;20038;-85
2023/08/01 05:16:44;;;;;;;5.03;3.10;;;;;;;;;;4972175;28;20470;-85
2023/08/01 05:19:30;;;;;;;6.40;3.50;;;;;;;;;;4972673;28;20062;-85
2023/08/01 05:22:15;;;;;;;7.05;3.40;;;;;;;;;;4963986;28;20042;-86
2023/08/01 05:25:01;;;;;;;11.48;3.88;;;;;;;;;;4972142;28;20039;-85
2023/08/01 05:27:55;;;;;;;3.92;3.20;;;;;;;;;;4963625;28;20046;-85
2023/08/01 05:30:40;;;;;;;9.43;3.33;;;;;;;;;;4971660;28;20047;-85
2023/08/01 05:33:25;;;;;;;6.15;2.97;;;;;;;;;;4971930;28;20039;-84
2023/08/01 05:36:11;;;;;;;5.60;3.10;;;;;;;;;;4950593;28;20458;-85
2023/08/01 05:38:57;;;;;;;7.07;2.88;;;;;;;;;;4963623;28;20047;-85
2023/08/01 05:41:43;;;;;;;4.50;2.90;;;;;;;;;;4971277;28;20050;-83
2023/08/01 05:44:28;;;;;;;5.68;3.20;;;;;;;;;;4962979;28;20487;-83
2023/08/01 05:47:13;;;;;;;6.13;3.10;;;;;;;;;;4971491;28;20042;-83
2023/08/01 05:49:59;;;;;;;6.10;3.13;;;;;;;;;;4971535;28;20043;-82
2023/08/01 05:52:44;;;;;;;5.50;2.97;;;;;;;;;;4971395;28;20042;-85
2023/08/01 05:55:30;;;;;;;7.07;3.10;;;;;;;;;;4963594;28;20046;-85
2023/08/01 05:58:16;;;;;;;4.13;2.85;;;;;;;;;;4971178;28;21320;-84
2023/08/01 06:01:01;;;;;;;4.45;2.80;;;;;;;;;;4967654;28;20653;-83
2023/08/01 06:03:47;;;;;;;8.60;3.13;;;;;;;;;;4966459;28;20390;-83
2023/08/01 06:06:32;;;;;;;9.80;3.33;;;;;;;;;;4958141;28;20556;-83
2023/08/01 06:09:17;;;;;;;6.30;2.97;;;;;;;;;;4966442;28;20050;-84
2023/08/01 06:12:03;;;;;;;4.65;2.85;;;;;;;;;;4963703;28;20051;-84
2023/08/01 06:14:48;;;;;;;4.55;2.90;;;;;;;;;;4957994;28;20051;-84
2023/08/01 06:17:36;;;;;;;5.97;3.20;;;;;;;;;;4951880;28;20043;-84
2023/08/01 06:20:21;;;;;;;3.90;3.20;;;;;;;;;;4954483;28;20038;-85
2023/08/01 06:23:07;;;;;;;4.90;3.40;;;;;;;;;;4971463;28;20069;-84
2023/08/01 06:25:52;;;;;;;5.28;3.17;;;;;;;;;;4962782;28;20406;-83
2023/08/01 06:28:37;;;;;;;9.85;3.35;;;;;;;;;;4970520;28;20042;-84
2023/08/01 06:31:23;;;;;;;4.25;2.70;;;;;;;;;;4969709;28;20054;-83
2023/08/01 06:34:08;;;;;;;8.60;3.15;;;;;;;;;;4963118;28;20486;-83
2023/08/01 06:36:54;;;;;;;3.72;3.00;;;;;;;;;;4954422;28;20039;-85
2023/08/01 06:39:39;;;;;;;5.65;3.08;;;;;;;;;;4971151;28;20047;-82
2023/08/01 06:42:24;;;;;;;4.82;2.90;;;;;;;;;;4971207;28;20043;-81
2023/08/01 06:45:10;;;;;;;7.00;3.17;;;;;;;;;;4970879;28;20039;-82
2023/08/01 06:47:55;;;;;;;5.25;3.08;;;;;;;;;;4969680;28;20046;-81
2023/08/01 06:50:41;;;;;;;4.90;3.00;;;;;;;;;;4961862;28;20047;-82
2023/08/01 06:53:27;;;;;;;6.10;3.15;;;;;;;;;;4955462;28;20402;-83
2023/08/01 06:56:12;;;;;;;6.47;3.10;;;;;;;;;;4963194;28;20042;-81
2023/08/01 06:59:53;;;;;;;9.20;3.55;;;;;;;;;;4959399;28;20398;-82
2023/08/01 07:02:43;;;;;;;8.88;3.97;;;;;;;;;;4936366;29;20047;-83
2023/08/01 07:05:42;;;;;;;6.25;3.72;;;;;;;;;;4957075;29;20039;-82
2023/08/01 07:08:27;;;;;;;7.80;4.47;;;;;;;;;;4963531;28;20418;-82
2023/08/01 07:11:18;;;;;;;9.15;4.00;;;;;;;;;;4961590;29;20035;-83
2023/08/01 07:14:10;;;;;;;7.40;3.90;;;;;;;;;;4960522;28;20043;-82
2023/08/01 07:17:08;;;;;;;15.57;4.50;;;;;;;;;;4956087;29;20495;-82
2023/08/01 07:20:04;;;;;;;8.93;3.63;;;;;;;;;;4949961;28;20495;-82
2023/08/01 07:23:03;;;;;;;6.32;3.90;;;;;;;;;;4954669;29;20031;-82
2023/08/01 07:25:57;;;;;;;6.28;4.00;;;;;;;;;;4947178;29;20403;-82
2023/08/01 07:29:36;;;;;;;8.57;3.75;;;;;;;;;;4945933;28;20051;-88
2023/08/01 07:36:21;;;;;;;5.88;3.72;;;;;;;;;;4924753;28;20440;-84
2023/08/01 07:39:18;;;;;;;8.20;4.05;;;;;;;;;;4960118;28;20039;-84
2023/08/01 07:42:03;;;;;;;;;;;;;;;;;;4956925;28;20050;-81
2023/08/01 07:48:49;;;;;;;9.40;4.25;;;;;;;;;;4966832;28;20050;-82
2023/08/01 07:51:37;;;;;;;8.80;4.10;;;;;;;;;;4965522;28;20471;-82
2023/08/01 07:54:44;;;;;;;5.88;3.42;;;;;;;;;;4954279;28;20509;-83
2023/08/01 07:57:42;;;;;;;5.28;3.53;;;;;;;;;;4966799;28;20047;-82
2023/08/01 08:04:59;;;;;;;9.48;3.95;;;;;;;;;;4912434;29;20032;-83
2023/08/01 08:07:45;;;;;;;8.32;3.47;;;;;;;;;;4961883;28;20398;-82
2023/08/01 08:19:48;;;;;;;5.95;3.20;;;;;;;;;;4992190;28;20046;-82
2023/08/01 08:22:34;;;;;;;6.18;3.75;;;;;;;;;;4978251;28;20046;-82
2023/08/01 08:25:20;;;;;;;5.05;3.15;;;;;;;;;;4992174;28;20043;-82
2023/08/01 08:28:05;;;;;;;6.20;3.10;;;;;;;;;;4992239;28;20042;-83
2023/08/01 08:30:51;;;;;;;8.95;3.10;;;;;;;;;;4971165;28;20398;-82
2023/08/01 08:33:35;;;;;;;5.38;3.30;;;;;;;;;;4978029;28;20042;-85
2023/08/01 08:36:21;;;;;;;10.07;2.90;;;;;;;;;;4984695;28;20046;-83
2023/08/01 08:39:07;;;;;;;3.97;2.70;;;;;;;;;;4977272;28;20482;-84
2023/08/01 08:41:53;;;;;;;4.65;2.42;;;;;;;;;;4992748;28;20395;-83
2023/08/01 08:44:43;;;;;;;3.25;2.10;;;;;;;;;;4992363;28;20046;-83
2023/08/01 08:47:30;;;;;;;5.10;2.47;;;;;;;;;;4970737;28;20066;-84
2023/08/01 08:50:16;;;;;;;4.55;2.55;;;;;;;;;;4977836;28;20038;-84
2023/08/01 08:53:46;;;;;;;6.15;2.72;;;;;;;;;;4991772;28;20038;-83
2023/08/01 09:04:16;;;;;;;5.97;2.67;;;;;;;;;;4972553;28;20050;-84
2023/08/01 09:07:07;;;;;;;12.07;6.00;;;;;;;;;;4971812;28;20038;-85
2023/08/01 09:10:21;;;;;;;7.50;3.35;;;;;;;;;;4977512;28;20464;-84
2023/08/01 09:13:32;;;;;;;4.90;2.72;;;;;;;;;;4949498;28;20042;-86
2023/08/01 09:16:17;;;;;;;4.75;2.88;;;;;;;;;;4970680;28;20050;-85
2023/08/01 09:19:27;;;;;;;5.70;2.88;;;;;;;;;;5068100;27;1346311;-80
2023/08/01 09:22:14;;;;;;;8.68;3.30;;;;;;;;;;5092681;28;20044;-79
2023/08/01 09:25:00;;;;;;;9.18;3.20;;;;;;;;;;5098284;28;20044;-81
2023/08/01 09:27:45;;;;;;;4.13;2.80;;;;;;;;;;5092562;28;20088;-78
2023/08/01 09:30:31;;;;;;;3.83;2.80;;;;;;;;;;5100842;28;20036;-79
2023/08/01 09:33:17;;;;;;;7.57;2.70;;;;;;;;;;5092057;28;20052;-77
2023/08/01 09:36:04;;;;;;;7.57;2.83;;;;;;;;;;5098959;28;20044;-79
2023/08/01 09:38:50;;;;;;;4.05;2.50;;;;;;;;;;5098983;28;20048;-79
2023/08/01 09:41:35;;;;;;;24.27;11.77;;;;;;;;;;5090520;28;20040;-78
2023/08/01 09:44:21;;;;;;;5.63;2.40;;;;;;;;;;5097254;28;20052;-78
2023/08/01 09:47:07;;;;;;;3.45;2.70;;;;;;;;;;5091511;28;20056;-77
2023/08/01 09:49:53;;;;;;;4.10;2.40;;;;;;;;;;5096848;28;20044;-77
2023/08/01 09:52:39;;;;;;;5.18;2.72;;;;;;;;;;5097861;28;20052;-76
2023/08/01 09:55:24;;;;;;;5.97;3.03;;;;;;;;;;5097430;28;20040;-76
2023/08/01 09:58:13;;;;;;;6.20;3.00;;;;;;;;;;5090890;28;20044;-78
2023/08/01 10:01:00;;;;;;;5.05;2.90;;;;;;;;;;5091820;28;20051;-77
2023/08/01 10:03:50;;;;;;;4.13;2.50;;;;;;;;;;5098892;28;20040;-77
2023/08/01 10:06:39;;;;;;;3.15;2.50;;;;;;;;;;5091096;28;20418;-76
2023/08/01 10:09:25;;;;;;;4.65;2.50;;;;;;;;;;5097671;28;20052;-77
2023/08/01 10:12:12;;;;;;;11.55;4.70;;;;;;;;;;5096826;28;20044;-77
2023/08/01 10:14:59;;;;;;;7.97;4.97;;;;;;;;;;5096587;28;20036;-76
2023/08/01 10:17:45;;;;;;;3.25;2.60;;;;;;;;;;5089301;28;20048;-76
2023/08/01 10:20:32;;;;;;;10.38;2.80;;;;;;;;;;5090483;28;20048;-76
2023/08/01 10:23:17;;;;;;;3.83;2.80;;;;;;;;;;5096443;28;20048;-76
2023/08/01 10:26:05;;;;;;;7.50;2.38;;;;;;;;;;5089025;28;20474;-75
2023/08/01 10:28:51;;;;;;;5.38;2.75;;;;;;;;;;5086455;28;20036;-76
2023/08/01 10:31:37;;;;;;;8.25;3.20;;;;;;;;;;5076012;28;20048;-76
2023/08/01 10:34:22;;;;;;;4.65;2.80;;;;;;;;;;5082559;28;20033;-77
2023/08/01 10:37:08;;;;;;;7.03;3.10;;;;;;;;;;5092590;28;20052;-78
2023/08/01 10:39:58;;;;;;;5.63;3.00;;;;;;;;;;5086329;28;20045;-77
2023/08/01 10:42:45;;;;;;;5.43;2.60;;;;;;;;;;5075813;28;20048;-77
2023/08/01 10:45:31;;;;;;;10.75;3.45;;;;;;;;;;5075685;28;20048;-77
2023/08/01 10:48:16;;;;;;;8.45;2.78;;;;;;;;;;5075988;28;20394;-77
2023/08/01 10:51:03;;;;;;;5.40;2.92;;;;;;;;;;5084258;28;20041;-78
2023/08/01 10:53:48;;;;;;;6.57;2.60;;;;;;;;;;5082735;28;20402;-81
2023/08/01 10:56:35;;;;;;;4.60;2.88;;;;;;;;;;5075693;28;20044;-79
2023/08/01 10:59:22;;;;;;;8.40;2.80;;;;;;;;;;5081243;28;20053;-84
2023/08/01 11:02:07;;;;;;;6.55;2.80;;;;;;;;;;5082599;28;20045;-81
2023/08/01 11:05:07;;;;;;;6.05;2.50;;;;;;;;;;5082420;28;20044;-79
2023/08/01 11:07:57;;;;;;;6.60;3.08;;;;;;;;;;5075409;28;20052;-79
2023/08/01 11:10:49;;;;;;;6.18;2.40;;;;;;;;;;5075010;28;20044;-80
2023/08/01 11:13:34;;;;;;;6.85;2.80;;;;;;;;;;5082247;28;20056;-79
2023/08/01 11:16:21;;;;;;;4.72;2.47;;;;;;;;;;5082117;28;20481;-79
2023/08/01 11:19:21;;;;;;;6.38;2.97;;;;;;;;;;5076415;28;20048;-78
2023/08/01 11:22:10;;;;;;;9.55;3.03;;;;;;;;;;5081958;28;20405;-80
2023/08/01 11:24:56;;;;;;;6.90;2.85;;;;;;;;;;5075860;28;20048;-78
2023/08/01 11:27:41;;;;;;;3.70;2.75;;;;;;;;;;5074640;28;20432;-77
2023/08/01 11:30:32;;;;;;;3.53;2.40;;;;;;;;;;5075445;28;20124;-76
2023/08/01 11:33:23;;;;;;;4.40;3.03;;;;;;;;;;5075788;28;20049;-76
2023/08/01 11:36:09;;;;;;;4.82;2.85;;;;;;;;;;5082919;28;20490;-76
2023/08/01 11:39:00;;;;;;;7.28;2.40;;;;;;;;;;5076387;28;20401;-76
2023/08/01 11:41:45;;;;;;;5.55;2.67;;;;;;;;;;5074760;28;20393;-76
2023/08/01 11:44:31;;;;;;;4.90;2.83;;;;;;;;;;5074683;28;20048;-78
2023/08/01 11:47:17;;;;;;;9.27;3.25;;;;;;;;;;5081582;28;20040;-78
2023/08/01 11:50:04;;;;;;;3.55;2.63;;;;;;;;;;5074688;28;20056;-79
2023/08/01 11:52:50;;;;;;;6.50;2.50;;;;;;;;;;5081214;28;20044;-80
2023/08/01 11:55:36;;;;;;;4.75;2.42;;;;;;;;;;5074680;28;20049;-79
2023/08/01 11:58:34;;;;;;;5.30;2.63;;;;;;;;;;5075244;28;20378;-76
2023/08/01 12:01:20;;;;;;;3.13;2.40;;;;;;;;;;5075604;28;20397;-76
2023/08/01 12:04:05;;;;;;;6.10;2.30;;;;;;;;;;5081249;28;20032;-80
2023/08/01 12:06:50;;;;;;;4.65;2.17;;;;;;;;;;5080870;28;20044;-79
2023/08/01 12:09:36;;;;;;;3.53;2.40;;;;;;;;;;5079963;28;20044;-78
2023/08/01 12:12:21;;;;;;;6.22;2.65;;;;;;;;;;5074195;28;20036;-79
2023/08/01 12:15:07;;;;;;;3.80;2.40;;;;;;;;;;5080930;28;20040;-78
2023/08/01 12:17:52;;;;;;;3.95;2.40;;;;;;;;;;5073856;28;20048;-79
2023/08/01 12:20:37;;;;;;;4.30;2.08;;;;;;;;;;5080302;28;20045;-77
2023/08/01 12:23:23;;;;;;;6.05;2.70;;;;;;;;;;5074029;28;20405;-80
2023/08/01 12:26:09;;;;;;;6.05;2.45;;;;;;;;;;5080644;28;20045;-79
2023/08/01 12:28:55;;;;;;;3.30;2.35;;;;;;;;;;5073945;28;20036;-79
2023/08/01 12:31:40;;;;;;;5.13;2.50;;;;;;;;;;5080645;28;20048;-79
2023/08/01 12:34:25;;;;;;;6.57;2.70;;;;;;;;;;5080698;28;20049;-83
2023/08/01 12:37:14;;;;;;;5.53;2.42;;;;;;;;;;5074388;28;20040;-80
2023/08/01 12:39:59;;;;;;;5.25;2.70;;;;;;;;;;5073080;28;20048;-80
2023/08/01 12:42:46;;;;;;;3.60;2.53;;;;;;;;;;5073940;28;20482;-79
2023/08/01 12:45:32;;;;;;;5.95;2.55;;;;;;;;;;5080605;28;20040;-78
2023/08/01 12:48:17;;;;;;;6.38;2.78;;;;;;;;;;5080040;28;20040;-79
2023/08/01 12:51:03;;;;;;;7.13;2.60;;;;;;;;;;5093381;28;20048;-80
2023/08/01 12:53:48;;;;;;;5.80;2.75;;;;;;;;;;5088007;28;20048;-80
2023/08/01 12:56:34;;;;;;;5.50;2.63;;;;;;;;;;5066328;28;20036;-77
2023/08/01 12:59:19;;;;;;;6.72;3.65;;;;;;;;;;5073935;28;20433;-77
2023/08/01 13:02:08;;;;;;;4.18;2.60;;;;;;;;;;5074033;28;20183;-80
2023/08/01 13:04:53;;;;;;;4.78;2.65;;;;;;;;;;5080901;28;20615;-79
2023/08/01 13:07:38;;;;;;;3.95;2.65;;;;;;;;;;5075213;28;20037;-79
2023/08/01 13:10:25;;;;;;;5.30;2.72;;;;;;;;;;5074870;28;20044;-79
2023/08/01 13:13:10;;;;;;;7.43;2.55;;;;;;;;;;5080811;28;20048;-79
2023/08/01 13:15:57;;;;;;;4.30;2.50;;;;;;;;;;5082159;28;20040;-79
2023/08/01 13:18:47;;;;;;;3.90;2.85;;;;;;;;;;5073983;28;20485;-78
2023/08/01 13:21:36;;;;;;;4.30;2.60;;;;;;;;;;5081215;28;20044;-80
2023/08/01 13:24:22;;;;;;;5.65;2.70;;;;;;;;;;5080924;28;20490;-79
2023/08/01 13:27:09;;;;;;;5.18;2.65;;;;;;;;;;5080759;28;20056;-81
2023/08/01 13:30:00;;;;;;;12.18;3.00;;;;;;;;;;5079680;28;20044;-80
2023/08/01 13:32:46;;;;;;;4.63;2.50;;;;;;;;;;5079956;28;20052;-79
2023/08/01 13:35:32;;;;;;;5.65;2.70;;;;;;;;;;5073416;28;20044;-79
2023/08/01 13:38:17;;;;;;;14.32;2.50;;;;;;;;;;5079421;28;20049;-79
2023/08/01 13:41:02;;;;;;;9.10;3.05;;;;;;;;;;5074980;28;20041;-78
2023/08/01 13:43:49;;;;;;;6.18;3.03;;;;;;;;;;5079199;28;20208;-78
2023/08/01 13:46:34;;;;;;;4.90;2.40;;;;;;;;;;5073837;28;20041;-77
2023/08/01 13:49:20;;;;;;;4.45;2.50;;;;;;;;;;5074533;28;20052;-77
2023/08/01 13:52:06;;;;;;;4.53;2.45;;;;;;;;;;5078350;28;20048;-80
2023/08/01 13:54:52;;;;;;;6.60;2.42;;;;;;;;;;5073189;28;20040;-78
2023/08/01 13:57:37;;;;;;;4.20;2.15;;;;;;;;;;5081057;28;20040;-76
2023/08/01 14:00:22;;;;;;;3.55;2.47;;;;;;;;;;5079264;28;20394;-79
2023/08/01 14:03:08;;;;;;;3.67;2.35;;;;;;;;;;5071716;28;20045;-79
2023/08/01 14:05:54;;;;;;;5.63;2.50;;;;;;;;;;5066271;28;20052;-79
2023/08/01 14:08:40;;;;;;;3.45;2.40;;;;;;;;;;5083192;28;20036;-77
2023/08/01 14:11:26;;;;;;;6.60;2.78;;;;;;;;;;5076302;28;20041;-78
2023/08/01 14:14:11;;;;;;;6.05;2.72;;;;;;;;;;5076866;28;20513;-80
2023/08/01 14:16:57;;;;;;;5.93;2.63;;;;;;;;;;5086411;28;20040;-83
2023/08/01 14:19:42;;;;;;;4.65;2.47;;;;;;;;;;5074797;28;20052;-80
2023/08/01 14:22:27;;;;;;;3.85;2.47;;;;;;;;;;5074592;28;20037;-81
2023/08/01 14:25:12;;;;;;;3.50;2.50;;;;;;;;;;5082234;28;20040;-78
2023/08/01 14:27:57;;;;;;;4.70;2.70;;;;;;;;;;5074237;28;20397;-79
2023/08/01 14:30:43;;;;;;;4.18;2.42;;;;;;;;;;5081295;28;20040;-81
2023/08/01 14:33:29;;;;;;;7.15;2.58;;;;;;;;;;5075379;28;20370;-80
2023/08/01 14:36:14;;;;;;;4.05;2.60;;;;;;;;;;5077420;28;20045;-80
2023/08/01 14:39:00;;;;;;;5.22;2.30;;;;;;;;;;5081230;28;20066;-79
2023/08/01 14:41:46;;;;;;;4.07;2.70;;;;;;;;;;5084193;28;20045;-79
2023/08/01 14:44:32;;;;;;;5.38;3.03;;;;;;;;;;5080111;28;20070;-78
2023/08/01 14:47:18;;;;;;;6.97;2.70;;;;;;;;;;5080085;28;20036;-79
2023/08/01 14:50:04;;;;;;;6.07;2.95;;;;;;;;;;5086597;28;20397;-79
2023/08/01 14:52:49;;;;;;;8.00;2.80;;;;;;;;;;5081402;28;20048;-77
2023/08/01 14:55:35;;;;;;;6.47;2.72;;;;;;;;;;5090182;28;20044;-76
2023/08/01 14:58:21;;;;;;;7.32;2.75;;;;;;;;;;5090188;28;20045;-76
2023/08/01 15:01:14;;;;;;;6.47;2.78;;;;;;;;;;5079352;28;20510;-78
2023/08/01 15:03:59;;;;;;;6.50;2.53;;;;;;;;;;5090508;28;20041;-78
2023/08/01 15:06:45;;;;;;;3.25;2.60;;;;;;;;;;5087033;28;20049;-79
2023/08/01 15:09:30;;;;;;;6.32;2.78;;;;;;;;;;5084237;28;20048;-78
2023/08/01 15:12:17;;;;;;;7.53;2.90;;;;;;;;;;5077852;28;20053;-78
2023/08/01 15:15:03;;;;;;;4.47;3.00;;;;;;;;;;5083557;28;20044;-77
2023/08/01 15:17:49;;;;;;;7.28;2.92;;;;;;;;;;5079559;28;20052;-75
2023/08/01 15:20:38;;;;;;;6.40;2.83;;;;;;;;;;5082485;28;20044;-75
2023/08/01 15:23:23;;;;;;;4.13;2.42;;;;;;;;;;5075730;28;20045;-77
2023/08/01 15:26:08;;;;;;;7.03;2.72;;;;;;;;;;5082382;28;20040;-79
2023/08/01 15:28:54;;;;;;;7.22;3.05;;;;;;;;;;5077845;28;20045;-77
2023/08/01 15:31:40;;;;;;;6.28;2.80;;;;;;;;;;5077887;28;20045;-77
2023/08/01 15:34:25;;;;;;;6.65;2.90;;;;;;;;;;5085254;28;20394;-77
2023/08/01 15:37:15;;;;;;;4.40;2.80;;;;;;;;;;5083033;28;20048;-78
2023/08/01 15:40:01;;;;;;;4.82;2.78;;;;;;;;;;5081670;28;20044;-79
2023/08/01 15:42:46;;;;;;;4.57;2.60;;;;;;;;;;5082634;28;20042;-81
2023/08/01 15:45:32;;;;;;;4.75;2.80;;;;;;;;;;5074892;28;20037;-78
2023/08/01 15:48:17;;;;;;;6.60;2.88;;;;;;;;;;5081665;28;20036;-77
2023/08/01 15:51:04;;;;;;;5.60;2.78;;;;;;;;;;5075243;28;20052;-76
2023/08/01 15:53:50;;;;;;;5.00;2.85;;;;;;;;;;5080969;28;20454;-77
2023/08/01 15:56:35;;;;;;;5.68;3.08;;;;;;;;;;5074567;28;20041;-78
2023/08/01 15:59:20;;;;;;;6.38;3.22;;;;;;;;;;5080995;28;20045;-77
2023/08/01 16:02:05;;;;;;;8.38;3.33;;;;;;;;;;5074852;28;20044;-76
2023/08/01 16:04:51;;;;;;;5.65;3.40;;;;;;;;;;5080324;28;20048;-77
2023/08/01 16:07:36;;;;;;;5.53;3.45;;;;;;;;;;5074189;28;20040;-77
2023/08/01 16:10:22;;;;;;;6.85;3.40;;;;;;;;;;5075948;28;20052;-76
2023/08/01 16:13:08;;;;;;;8.10;4.13;;;;;;;;;;5082222;28;20041;-76
2023/08/01 16:15:54;;;;;;;8.35;4.15;;;;;;;;;;5073948;28;20048;-77
2023/08/01 16:18:39;;;;;;;8.52;4.60;;;;;;;;;;5073819;28;20053;-77
2023/08/01 16:21:25;;;;;;;11.00;4.88;;;;;;;;;;5073865;28;20041;-77
2023/08/01 16:24:11;;;;;;;14.27;4.90;;;;;;;;;;5074881;28;20044;-77
2023/08/01 16:26:58;;;;;;;11.77;4.25;;;;;;;;;;5073439;28;20053;-80
2023/08/01 16:29:43;;;;;;;13.73;4.22;;;;;;;;;;5080804;28;20044;-79
2023/08/01 16:32:30;;;;;;;9.63;4.05;;;;;;;;;;5081131;28;20049;-80
2023/08/01 16:35:15;;;;;;;10.57;3.75;;;;;;;;;;5072641;28;20044;-77
2023/08/01 16:38:00;;;;;;;7.90;3.70;;;;;;;;;;5073894;28;20048;-77
2023/08/01 16:40:46;;;;;;;3.83;2.70;;;;;;;;;;5080791;28;20048;-77
2023/08/01 16:43:32;;;;;;;7.07;3.40;;;;;;;;;;5080864;28;20044;-77
2023/08/01 16:46:17;;;;;;;5.65;3.13;;;;;;;;;;5079419;28;20048;-76
2023/08/01 16:49:02;;;;;;;8.27;3.30;;;;;;;;;;5073730;28;20044;-77
2023/08/01 16:51:48;;;;;;;8.18;2.90;;;;;;;;;;5081538;28;20049;-77
2023/08/01 16:54:33;;;;;;;9.43;3.30;;;;;;;;;;5074494;28;20041;-77
2023/08/01 16:57:19;;;;;;;6.38;3.15;;;;;;;;;;5073755;28;20048;-76
2023/08/01 17:00:07;;;;;;;6.95;3.10;;;;;;;;;;5080576;28;20044;-77
2023/08/01 17:02:53;;;;;;;6.63;3.30;;;;;;;;;;5079008;28;20044;-79
2023/08/01 17:05:39;;;;;;;5.25;3.22;;;;;;;;;;5075540;28;20056;-78
2023/08/01 17:08:25;;;;;;;8.75;3.53;;;;;;;;;;5074038;28;20040;-78
2023/08/01 17:11:10;;;;;;;7.72;3.53;;;;;;;;;;5079141;28;20088;-78
2023/08/01 17:13:55;;;;;;;5.63;3.70;;;;;;;;;;5072715;28;20044;-78
2023/08/01 17:16:41;;;;;;;9.15;4.32;;;;;;;;;;5073279;28;20052;-78
2023/08/01 17:19:26;;;;;;;10.32;4.60;;;;;;;;;;5092614;28;20056;-79
2023/08/01 17:22:12;;;;;;;7.13;4.07;;;;;;;;;;5078844;28;20048;-78
2023/08/01 17:24:58;;;;;;;10.48;3.53;;;;;;;;;;5072986;28;20052;-78
2023/08/01 17:27:43;;;;;;;6.25;3.70;;;;;;;;;;5072012;28;20052;-76
2023/08/01 17:30:29;;;;;;;5.50;3.25;;;;;;;;;;5073372;28;20049;-77
2023/08/01 17:33:14;;;;;;;7.20;3.50;;;;;;;;;;5082210;28;20044;-77
2023/08/01 17:36:00;;;;;;;4.90;3.40;;;;;;;;;;5079088;28;20052;-82
2023/08/01 17:38:48;;;;;;;7.57;3.78;;;;;;;;;;5073333;28;20045;-77
2023/08/01 17:41:33;;;;;;;9.73;3.95;;;;;;;;;;5084144;28;20040;-77
2023/08/01 17:44:19;;;;;;;11.18;4.65;;;;;;;;;;5083773;28;20393;-77
2023/08/01 17:47:05;;;;;;;5.97;3.55;;;;;;;;;;5083928;28;20037;-79
2023/08/01 17:49:50;;;;;;;11.07;3.38;;;;;;;;;;5083681;28;20033;-79